createdAt,value
2023-03-06T00:01:11.929Z,98941.25
2023-03-06T00:03:39.870Z,98946.34
2023-03-06T00:06:08.666Z,98949.66
2023-03-06T00:08:37.946Z,98954.63
2023-03-06T00:11:06.281Z,98956.22
2023-03-06T00:13:35.090Z,98949.59
2023-03-06T00:16:03.033Z,98948.75
2023-03-06T00:18:30.942Z,98952.00
2023-03-06T00:20:58.847Z,98945.41
2023-03-06T00:23:27.522Z,98943.78
2023-03-06T00:25:56.711Z,98937.88
2023-03-06T00:28:24.607Z,98937.09
2023-03-06T00:30:52.591Z,98930.59
2023-03-06T00:33:20.485Z,98925.50
2023-03-06T00:35:48.393Z,98932.78
2023-03-06T00:38:16.336Z,98929.25
2023-03-06T00:40:44.496Z,98915.88
2023-03-06T00:43:14.399Z,98921.47
2023-03-06T00:45:43.201Z,98922.63
2023-03-06T00:48:11.220Z,98920.09
2023-03-06T00:50:39.040Z,98921.72
2023-03-06T00:53:06.848Z,98916.75
2023-03-06T00:55:34.748Z,98916.75
2023-03-06T00:58:02.670Z,98904.19
2023-03-06T01:00:31.960Z,98909.34
2023-03-06T01:02:59.852Z,98911.78
2023-03-06T01:05:27.717Z,98908.50
2023-03-06T01:07:55.594Z,98905.22
2023-03-06T01:10:23.756Z,98906.94
2023-03-06T01:12:51.622Z,98908.66
2023-03-06T01:15:19.883Z,98897.84
2023-03-06T01:17:49.153Z,98902.78
2023-03-06T01:20:18.406Z,98903.56
2023-03-06T01:22:46.270Z,98900.28
2023-03-06T01:25:14.271Z,98894.53
2023-03-06T01:27:42.266Z,98894.53
2023-03-06T01:30:13.150Z,98884.63
2023-03-06T01:32:41.114Z,98887.19
2023-03-06T01:35:11.377Z,98888.88
2023-03-06T01:37:40.140Z,98889.72
2023-03-06T01:40:13.042Z,98886.22
2023-03-06T01:42:41.377Z,98892.59
2023-03-06T01:45:48.098Z,98885.03
2023-03-06T01:48:16.455Z,98882.44
2023-03-06T01:50:45.788Z,98881.53
2023-03-06T01:53:14.302Z,98878.28
2023-03-06T01:55:42.551Z,98879.31
2023-03-06T01:58:15.024Z,98875.94
2023-03-06T02:00:42.919Z,98867.63
2023-03-06T02:03:14.179Z,98866.75
2023-03-06T02:05:44.723Z,98869.38
2023-03-06T02:08:17.116Z,98863.00
2023-03-06T02:10:58.192Z,98852.41
2023-03-06T02:13:26.202Z,98854.88
2023-03-06T02:15:54.166Z,98858.28
2023-03-06T02:18:22.090Z,98861.56
2023-03-06T02:20:54.885Z,98863.22
2023-03-06T02:23:32.762Z,98855.81
2023-03-06T02:26:02.967Z,98861.53
2023-03-06T02:28:30.930Z,98865.56
2023-03-06T02:31:00.209Z,98859.81
2023-03-06T02:33:30.457Z,98854.09
2023-03-06T02:36:02.002Z,98872.34
2023-03-06T02:38:32.952Z,98863.22
2023-03-06T02:41:04.900Z,98860.78
2023-03-06T02:43:35.625Z,98865.78
2023-03-06T02:46:03.768Z,98862.41
2023-03-06T02:48:31.603Z,98857.47
2023-03-06T02:50:59.558Z,98858.31
2023-03-06T02:53:27.893Z,98856.81
2023-03-06T02:55:56.016Z,98853.56
2023-03-06T02:58:25.368Z,98848.63
2023-03-06T03:00:53.299Z,98847.06
2023-03-06T03:03:22.163Z,98847.91
2023-03-06T03:05:50.026Z,98855.31
2023-03-06T03:08:24.736Z,98858.50
2023-03-06T03:10:57.764Z,98859.22
2023-03-06T03:13:29.964Z,98850.97
2023-03-06T03:16:03.161Z,98853.31
2023-03-06T03:18:31.507Z,98854.81
2023-03-06T03:20:59.764Z,98854.13
2023-03-06T03:23:28.256Z,98840.28
2023-03-06T03:26:07.177Z,98840.44
2023-03-06T03:28:37.936Z,98837.03
2023-03-06T03:31:09.609Z,98831.25
2023-03-06T03:33:37.583Z,98838.81
2023-03-06T03:36:07.750Z,98823.78
2023-03-06T03:38:39.614Z,98834.63
2023-03-06T03:41:08.062Z,98825.66
2023-03-06T03:43:37.838Z,98831.66
2023-03-06T03:46:06.169Z,98838.34
2023-03-06T03:48:34.779Z,98834.97
2023-03-06T03:51:07.122Z,98845.75
2023-03-06T03:53:37.881Z,98839.25
2023-03-06T03:56:07.929Z,98832.63
2023-03-06T03:58:44.401Z,98839.13
2023-03-06T04:01:12.405Z,98840.44
2023-03-06T04:03:40.609Z,98850.72
2023-03-06T04:06:10.297Z,98844.59
2023-03-06T04:08:38.802Z,98832.03
2023-03-06T04:11:07.179Z,98825.47
2023-03-06T04:13:35.236Z,98828.94
2023-03-06T04:16:06.119Z,98815.09
2023-03-06T04:18:36.066Z,98824.47
2023-03-06T04:21:07.030Z,98812.31
2023-03-06T04:23:34.998Z,98818.25
2023-03-06T04:26:04.134Z,98823.44
2023-03-06T04:28:32.218Z,98822.78
2023-03-06T04:31:00.665Z,98835.97
2023-03-06T04:33:30.488Z,98824.31
2023-03-06T04:35:58.443Z,98836.66
2023-03-06T04:38:30.354Z,98837.31
2023-03-06T04:40:58.323Z,98826.44
2023-03-06T04:43:26.405Z,98819.75
2023-03-06T04:45:54.257Z,98815.34
2023-03-06T04:48:22.169Z,98810.84
2023-03-06T04:50:51.431Z,98809.09
2023-03-06T04:53:21.330Z,98813.91
2023-03-06T04:55:49.206Z,98812.28
2023-03-06T04:58:17.046Z,98820.66
2023-03-06T05:00:44.988Z,98812.34
2023-03-06T05:03:14.348Z,98819.81
2023-03-06T05:05:42.242Z,98816.38
2023-03-06T05:08:15.247Z,98805.34
2023-03-06T05:10:43.313Z,98816.38
2023-03-06T05:13:11.870Z,98813.81
2023-03-06T05:15:41.959Z,98814.50
2023-03-06T05:18:09.807Z,98818.59
2023-03-06T05:20:37.811Z,98826.16
2023-03-06T05:23:05.744Z,98827.09
2023-03-06T05:25:35.030Z,98801.44
2023-03-06T05:28:02.975Z,98824.25
2023-03-06T05:30:31.000Z,98820.16
2023-03-06T05:32:58.920Z,98823.69
2023-03-06T05:35:26.824Z,98818.06
2023-03-06T05:37:54.952Z,98815.72
2023-03-06T05:40:23.327Z,98817.41
2023-03-06T05:42:52.563Z,98824.03
2023-03-06T05:45:20.439Z,98822.47
2023-03-06T05:47:48.394Z,98811.81
2023-03-06T05:50:16.390Z,98818.50
2023-03-06T05:52:44.223Z,98821.03
2023-03-06T05:55:13.699Z,98827.72
2023-03-06T05:57:41.656Z,98836.81
2023-03-06T06:00:13.014Z,98832.63
2023-03-06T06:02:40.986Z,98823.50
2023-03-06T06:05:11.816Z,98835.97
2023-03-06T06:07:40.678Z,98828.75
2023-03-06T06:10:09.809Z,98829.72
2023-03-06T06:12:37.686Z,98829.84
2023-03-06T06:15:06.749Z,98826.59
2023-03-06T06:17:35.973Z,98828.41
2023-03-06T06:20:04.801Z,98833.59
2023-03-06T06:22:32.685Z,98825.53
2023-03-06T06:25:00.544Z,98831.31
2023-03-06T06:27:28.389Z,98833.78
2023-03-06T06:29:56.297Z,98837.34
2023-03-06T06:32:24.268Z,98838.34
2023-03-06T06:34:53.573Z,98845.25
2023-03-06T06:37:21.498Z,98849.59
2023-03-06T06:39:56.885Z,98838.94
2023-03-06T06:42:34.176Z,98842.34
2023-03-06T06:45:05.910Z,98839.97
2023-03-06T06:47:34.298Z,98844.28
2023-03-06T06:50:03.716Z,98843.63
2023-03-06T06:52:31.621Z,98845.63
2023-03-06T06:54:59.479Z,98846.00
2023-03-06T06:57:27.318Z,98842.03
2023-03-06T06:59:55.141Z,98843.75
2023-03-06T07:02:23.731Z,98836.59
2023-03-06T07:05:06.942Z,98835.28
2023-03-06T07:07:37.985Z,98838.78
2023-03-06T07:10:08.187Z,98834.19
2023-03-06T07:12:36.120Z,98842.63
2023-03-06T07:15:05.337Z,98837.03
2023-03-06T07:17:33.260Z,98841.50
2023-03-06T07:20:01.330Z,98841.59
2023-03-06T07:22:33.879Z,98841.59
2023-03-06T07:25:11.864Z,98826.69
2023-03-06T07:27:39.931Z,98835.28
2023-03-06T07:30:08.992Z,98840.44
2023-03-06T07:32:36.894Z,98836.53
2023-03-06T07:35:19.325Z,98838.31
2023-03-06T07:37:48.195Z,98838.53
2023-03-06T07:40:18.266Z,98834.53
2023-03-06T07:42:46.224Z,98842.09
2023-03-06T07:45:18.208Z,98839.78
2023-03-06T07:47:46.573Z,98829.97
2023-03-06T07:50:14.566Z,98838.53
2023-03-06T07:52:42.670Z,98835.44
2023-03-06T07:55:12.126Z,98836.50
2023-03-06T07:57:41.777Z,98835.09
2023-03-06T08:00:12.825Z,98831.19
2023-03-06T08:02:44.663Z,98833.22
2023-03-06T08:05:15.540Z,98830.09
2023-03-06T08:07:43.717Z,98828.72
2023-03-06T08:10:15.017Z,98835.53
2023-03-06T08:12:44.278Z,98838.06
2023-03-06T08:15:13.799Z,98837.97
2023-03-06T08:17:41.872Z,98837.94
2023-03-06T08:20:11.551Z,98839.53
2023-03-06T08:22:39.859Z,98840.44
2023-03-06T08:25:08.768Z,98842.19
2023-03-06T08:27:37.272Z,98837.31
2023-03-06T08:30:07.812Z,98833.25
2023-03-06T08:32:36.990Z,98838.22
2023-03-06T08:35:05.582Z,98828.34
2023-03-06T08:37:33.505Z,98833.34
2023-03-06T08:40:02.642Z,98791.19
2023-03-06T08:42:30.827Z,98832.78
2023-03-06T08:44:58.831Z,98837.03
2023-03-06T08:47:28.168Z,98834.78
2023-03-06T08:49:56.088Z,98829.09
2023-03-06T08:52:23.946Z,98830.16
2023-03-06T08:54:51.834Z,98832.84
2023-03-06T08:57:19.784Z,98827.22
2023-03-06T08:59:47.742Z,98834.78
2023-03-06T09:02:16.079Z,98831.44
2023-03-06T09:04:45.274Z,98832.47
2023-03-06T09:07:13.313Z,98834.41
2023-03-06T09:09:41.168Z,98832.72
2023-03-06T09:12:09.106Z,98818.59
2023-03-06T09:14:36.975Z,98822.78
2023-03-06T09:17:04.899Z,98813.78
2023-03-06T09:19:32.747Z,98818.97
2023-03-06T09:22:01.985Z,98816.63
2023-03-06T09:24:29.902Z,98817.69
2023-03-06T09:26:57.832Z,98826.19
2023-03-06T09:29:25.806Z,98815.44
2023-03-06T09:31:53.728Z,98806.25
2023-03-06T09:34:21.837Z,98818.16
2023-03-06T09:36:56.745Z,98802.53
2023-03-06T09:39:27.519Z,98811.81
2023-03-06T09:41:57.449Z,98806.03
2023-03-06T09:44:27.782Z,98804.59
2023-03-06T09:47:08.028Z,98808.97
2023-03-06T09:49:44.194Z,98803.31
2023-03-06T09:52:24.541Z,98797.53
2023-03-06T09:54:57.788Z,98811.53
2023-03-06T09:57:28.643Z,98801.50
2023-03-06T09:59:58.853Z,98795.00
2023-03-06T10:02:34.446Z,98799.19
2023-03-06T10:05:06.838Z,98789.19
2023-03-06T10:07:45.602Z,98796.84
2023-03-06T10:10:20.843Z,98789.63
2023-03-06T10:12:56.853Z,98793.75
2023-03-06T10:15:28.611Z,98802.19
2023-03-06T10:17:57.940Z,98795.66
2023-03-06T10:20:27.970Z,98799.81
2023-03-06T10:23:15.957Z,98795.81
2023-03-06T10:25:55.077Z,98783.94
2023-03-06T10:28:29.770Z,98786.41
2023-03-06T10:31:03.096Z,98788.09
2023-03-06T10:33:45.754Z,98782.31
2023-03-06T10:36:16.877Z,98777.44
2023-03-06T10:38:46.144Z,98778.41
2023-03-06T10:41:24.700Z,98767.50
2023-03-06T10:44:24.677Z,98780.13
2023-03-06T10:46:55.597Z,98775.88
2023-03-06T10:49:30.215Z,98776.63
2023-03-06T10:52:01.274Z,98777.22
2023-03-06T10:54:30.209Z,98764.66
2023-03-06T10:56:59.725Z,98760.63
2023-03-06T10:59:29.500Z,98764.03
2023-03-06T11:01:59.576Z,98772.47
2023-03-06T11:04:30.038Z,98762.53
2023-03-06T11:07:13.524Z,98752.66
2023-03-06T11:09:43.018Z,98748.50
2023-03-06T11:12:28.982Z,98740.28
2023-03-06T11:15:10.356Z,98739.72
2023-03-06T11:17:48.635Z,98736.38
2023-03-06T11:20:18.664Z,98736.03
2023-03-06T11:22:49.374Z,98744.97
2023-03-06T11:25:20.037Z,98738.00
2023-03-06T11:27:56.521Z,98733.59
2023-03-06T11:30:27.439Z,98735.44
2023-03-06T11:33:01.442Z,98734.56
2023-03-06T11:35:35.719Z,98728.63
2023-03-06T11:38:08.090Z,98727.81
2023-03-06T11:40:41.229Z,98723.63
2023-03-06T11:43:21.893Z,98703.72
2023-03-06T11:45:57.887Z,98715.66
2023-03-06T11:48:30.807Z,98709.81
2023-03-06T11:51:07.418Z,98699.63
2023-03-06T11:53:36.936Z,98695.69
2023-03-06T11:56:29.463Z,98693.53
2023-03-06T11:59:12.066Z,98689.50
2023-03-06T12:01:44.044Z,98694.25
2023-03-06T12:04:38.112Z,98675.84
2023-03-06T12:07:20.513Z,98684.03
2023-03-06T12:09:55.633Z,98685.50
2023-03-06T12:12:38.671Z,98680.53
2023-03-06T12:15:20.272Z,98675.78
2023-03-06T12:18:10.344Z,98684.81
2023-03-06T12:20:51.735Z,98678.03
2023-03-06T12:23:33.730Z,98678.09
2023-03-06T12:26:07.480Z,98679.72
2023-03-06T12:28:51.429Z,98675.47
2023-03-06T12:31:42.818Z,98680.59
2023-03-06T12:34:24.176Z,98679.38
2023-03-06T12:37:04.263Z,98672.47
2023-03-06T12:39:46.972Z,98665.81
2023-03-06T12:42:29.361Z,98664.03
2023-03-06T12:45:27.852Z,98672.03
2023-03-06T12:47:58.146Z,98674.34
2023-03-06T12:50:27.814Z,98667.63
2023-03-06T12:52:58.219Z,98670.03
2023-03-06T12:55:26.716Z,98660.84
2023-03-06T12:57:54.774Z,98654.38
2023-03-06T13:01:04.393Z,98655.47
2023-03-06T13:03:45.013Z,98653.22
2023-03-06T13:06:36.568Z,98650.19
2023-03-06T13:09:19.582Z,98641.34
2023-03-06T13:12:28.642Z,98642.31
2023-03-06T13:15:02.272Z,98639.03
2023-03-06T13:17:36.595Z,98635.66
2023-03-06T13:20:30.277Z,98635.59
2023-03-06T13:22:58.572Z,98627.19
2023-03-06T13:25:46.645Z,98625.59
2023-03-06T13:28:25.828Z,98615.81
2023-03-06T13:30:53.770Z,98619.25
2023-03-06T13:33:58.163Z,98620.63
2023-03-06T13:36:32.207Z,98618.09
2023-03-06T13:39:09.777Z,98606.66
2023-03-06T13:41:42.028Z,98604.19
2023-03-06T13:44:49.061Z,98601.66
2023-03-06T13:47:55.722Z,98602.66
2023-03-06T13:50:36.517Z,98603.47
2023-03-06T13:53:35.122Z,98599.28
2023-03-06T13:56:24.120Z,98604.16
2023-03-06T13:59:14.158Z,98590.81
2023-03-06T14:01:50.940Z,98588.84
2023-03-06T14:04:45.158Z,98597.84
2023-03-06T14:07:28.198Z,98587.53
2023-03-06T14:10:10.026Z,98596.63
2023-03-06T14:12:41.396Z,98581.00
2023-03-06T14:15:19.615Z,98581.97
2023-03-06T14:17:55.495Z,98583.56
2023-03-06T14:20:28.547Z,98593.44
2023-03-06T14:23:16.382Z,98590.00
2023-03-06T14:25:46.905Z,98591.72
2023-03-06T14:28:24.726Z,98577.56
2023-03-06T14:30:54.703Z,98594.97
2023-03-06T14:33:31.082Z,98591.56
2023-03-06T14:36:02.435Z,98591.41
2023-03-06T14:38:35.462Z,98590.44
2023-03-06T14:41:06.587Z,98583.56
2023-03-06T14:43:34.608Z,98590.91
2023-03-06T14:46:04.124Z,98583.34
2023-03-06T14:48:41.314Z,98587.44
2023-03-06T14:51:16.634Z,98588.94
2023-03-06T14:53:46.009Z,98580.56
2023-03-06T14:56:19.025Z,98582.06
2023-03-06T14:58:55.254Z,98587.81
2023-03-06T15:01:30.302Z,98582.78
2023-03-06T15:04:00.860Z,98585.84
2023-03-06T15:06:33.976Z,98581.59
2023-03-06T15:09:07.806Z,98575.63
2023-03-06T15:11:58.719Z,98579.09
2023-03-06T15:14:37.917Z,98581.56
2023-03-06T15:17:23.411Z,98579.88
2023-03-06T15:19:54.265Z,98584.63
2023-03-06T15:22:28.594Z,98580.38
2023-03-06T15:25:18.566Z,98584.50
2023-03-06T15:27:51.710Z,98588.63
2023-03-06T15:30:29.231Z,98584.41
2023-03-06T15:33:11.474Z,98581.78
2023-03-06T15:35:39.784Z,98579.13
2023-03-06T15:38:24.845Z,98584.09
2023-03-06T15:40:57.310Z,98577.50
2023-03-06T15:43:27.699Z,98586.59
2023-03-06T15:45:59.795Z,98579.13
2023-03-06T15:48:28.450Z,98581.56
2023-03-06T15:50:56.409Z,98567.34
2023-03-06T15:53:24.349Z,98573.25
2023-03-06T15:55:53.390Z,98574.03
2023-03-06T15:58:24.865Z,98567.38
2023-03-06T16:00:54.213Z,98569.72
2023-03-06T16:03:22.186Z,98578.72
2023-03-06T16:05:50.106Z,98563.72
2023-03-06T16:08:18.041Z,98575.28
2023-03-06T16:10:47.914Z,98575.19
2023-03-06T16:13:19.704Z,98576.03
2023-03-06T16:15:49.997Z,98568.47
2023-03-06T16:18:19.799Z,98576.72
2023-03-06T16:20:48.160Z,98575.72
2023-03-06T16:23:16.409Z,98576.41
2023-03-06T16:25:48.718Z,98578.72
2023-03-06T16:28:17.249Z,98581.97
2023-03-06T16:30:46.048Z,98577.69
2023-03-06T16:33:14.835Z,98573.34
2023-03-06T16:35:46.598Z,98574.91
2023-03-06T16:38:15.601Z,98576.41
2023-03-06T16:40:44.269Z,98585.19
2023-03-06T16:43:13.455Z,98585.16
2023-03-06T16:45:42.738Z,98567.75
2023-03-06T16:48:17.216Z,98576.97
2023-03-06T16:50:46.737Z,98568.63
2023-03-06T16:53:15.409Z,98566.09
2023-03-06T16:55:43.764Z,98576.88
2023-03-06T16:58:11.622Z,98588.47
2023-03-06T17:00:39.739Z,98582.56
2023-03-06T17:03:07.894Z,98568.94
2023-03-06T17:05:37.933Z,98585.78
2023-03-06T17:08:07.205Z,98593.06
2023-03-06T17:10:35.117Z,98586.38
2023-03-06T17:13:03.392Z,98588.00
2023-03-06T17:15:31.415Z,98589.69
2023-03-06T17:17:59.472Z,98591.38
2023-03-06T17:20:27.434Z,98593.81
2023-03-06T17:22:55.304Z,98593.81
2023-03-06T17:25:24.981Z,98585.50
2023-03-06T17:27:52.812Z,98583.81
2023-03-06T17:30:20.682Z,98580.47
2023-03-06T17:32:48.538Z,98582.13
2023-03-06T17:35:16.483Z,98582.69
2023-03-06T17:37:44.431Z,98586.72
2023-03-06T17:40:14.568Z,98588.34
2023-03-06T17:42:43.880Z,98588.34
2023-03-06T17:45:12.600Z,98592.22
2023-03-06T17:47:40.478Z,98600.47
2023-03-06T17:50:09.478Z,98580.44
2023-03-06T17:52:37.511Z,98587.09
2023-03-06T17:55:06.279Z,98593.72
2023-03-06T17:57:34.304Z,98583.72
2023-03-06T18:00:05.860Z,98592.78
2023-03-06T18:02:40.044Z,98593.16
2023-03-06T18:05:09.249Z,98588.56
2023-03-06T18:07:37.684Z,98588.34
2023-03-06T18:10:06.445Z,98576.38
2023-03-06T18:12:34.379Z,98597.19
2023-03-06T18:15:03.697Z,98594.03
2023-03-06T18:17:31.606Z,98602.44
2023-03-06T18:19:59.542Z,98594.34
2023-03-06T18:22:27.401Z,98587.19
2023-03-06T18:24:55.223Z,98591.63
2023-03-06T18:27:23.662Z,98602.59
2023-03-06T18:29:52.947Z,98593.16
2023-03-06T18:32:22.330Z,98589.38
2023-03-06T18:34:51.054Z,98599.06
2023-03-06T18:37:19.436Z,98583.97
2023-03-06T18:39:47.635Z,98596.38
2023-03-06T18:42:15.723Z,98592.44
2023-03-06T18:44:47.729Z,98589.38
2023-03-06T18:47:15.884Z,98607.69
2023-03-06T18:49:46.089Z,98597.69
2023-03-06T18:52:14.188Z,98601.72
2023-03-06T18:54:42.773Z,98590.75
2023-03-06T18:57:11.225Z,98596.53
2023-03-06T18:59:39.218Z,98596.59
2023-03-06T19:02:07.774Z,98598.53
2023-03-06T19:04:37.623Z,98588.09
2023-03-06T19:07:07.351Z,98597.25
2023-03-06T19:09:35.305Z,98592.47
2023-03-06T19:12:04.162Z,98591.72
2023-03-06T19:14:32.148Z,98592.69
2023-03-06T19:17:00.076Z,98593.63
2023-03-06T19:19:29.351Z,98593.63
2023-03-06T19:21:59.106Z,98594.47
2023-03-06T19:24:28.393Z,98591.19
2023-03-06T19:26:56.349Z,98578.03
2023-03-06T19:29:24.232Z,98587.88
2023-03-06T19:31:52.178Z,98589.63
2023-03-06T19:34:20.436Z,98585.41
2023-03-06T19:36:50.925Z,98583.81
2023-03-06T19:39:18.753Z,98577.34
2023-03-06T19:41:48.526Z,98583.25
2023-03-06T19:44:17.227Z,98582.50
2023-03-06T19:46:45.165Z,98583.34
2023-03-06T19:49:16.722Z,98584.19
2023-03-06T19:51:45.266Z,98589.97
2023-03-06T19:54:13.909Z,98590.72
2023-03-06T19:56:42.139Z,98579.81
2023-03-06T19:59:11.378Z,98585.78
2023-03-06T20:01:40.415Z,98588.94
2023-03-06T20:04:08.642Z,98576.50
2023-03-06T20:06:37.615Z,98579.59
2023-03-06T20:09:08.814Z,98582.97
2023-03-06T20:11:37.016Z,98575.59
2023-03-06T20:14:06.890Z,98581.25
2023-03-06T20:16:37.026Z,98573.06
2023-03-06T20:19:06.390Z,98573.91
2023-03-06T20:21:37.538Z,98568.06
2023-03-06T20:24:06.612Z,98561.47
2023-03-06T20:26:36.743Z,98558.84
2023-03-06T20:29:05.108Z,98551.25
2023-03-06T20:31:33.043Z,98566.28
2023-03-06T20:34:02.439Z,98578.75
2023-03-06T20:36:31.884Z,98566.47
2023-03-06T20:39:01.303Z,98571.38
2023-03-06T20:41:31.335Z,98567.16
2023-03-06T20:44:00.241Z,98560.31
2023-03-06T20:46:29.571Z,98561.84
2023-03-06T20:48:58.189Z,98569.31
2023-03-06T20:51:30.162Z,98568.84
2023-03-06T20:53:59.402Z,98576.19
2023-03-06T20:56:29.461Z,98572.06
2023-03-06T20:58:57.893Z,98573.03
2023-03-06T21:01:28.155Z,98571.53
2023-03-06T21:03:57.856Z,98583.97
2023-03-06T21:06:28.672Z,98581.44
2023-03-06T21:08:57.156Z,98573.97
2023-03-06T21:11:25.467Z,98557.03
2023-03-06T21:13:53.810Z,98577.22
2023-03-06T21:16:24.045Z,98576.38
2023-03-06T21:18:52.648Z,98569.06
2023-03-06T21:21:24.069Z,98567.53
2023-03-06T21:23:53.363Z,98565.16
2023-03-06T21:26:23.250Z,98567.69
2023-03-06T21:28:51.522Z,98562.75
2023-03-06T21:31:21.769Z,98575.97
2023-03-06T21:33:51.137Z,98577.03
2023-03-06T21:36:21.335Z,98584.56
2023-03-06T21:38:50.576Z,98584.19
2023-03-06T21:41:21.240Z,98586.66
2023-03-06T21:43:49.217Z,98597.84
2023-03-06T21:46:17.160Z,98589.09
2023-03-06T21:48:45.232Z,98594.06
2023-03-06T21:51:19.014Z,98600.09
2023-03-06T21:53:48.892Z,98598.56
2023-03-06T21:56:20.018Z,98600.09
2023-03-06T21:58:47.941Z,98597.31
2023-03-06T22:01:18.720Z,98601.50
2023-03-06T22:03:47.233Z,98606.06
2023-03-06T22:06:17.681Z,98604.88
2023-03-06T22:08:45.672Z,98594.41
2023-03-06T22:11:15.251Z,98598.47
2023-03-06T22:13:45.658Z,98593.41
2023-03-06T22:16:14.298Z,98594.81
2023-03-06T22:18:46.429Z,98595.47
2023-03-06T22:21:15.726Z,98589.63
2023-03-06T22:23:43.630Z,98601.22
2023-03-06T22:26:14.338Z,98607.50
2023-03-06T22:28:44.183Z,98609.88
2023-03-06T22:31:14.583Z,98603.16
2023-03-06T22:33:42.887Z,98600.47
2023-03-06T22:36:12.863Z,98597.88
2023-03-06T22:38:43.094Z,98598.53
2023-03-06T22:41:12.762Z,98601.69
2023-03-06T22:43:40.928Z,98602.50
2023-03-06T22:46:12.219Z,98575.63
2023-03-06T22:48:40.443Z,98594.06
2023-03-06T22:51:10.357Z,98590.69
2023-03-06T22:53:39.036Z,98584.97
2023-03-06T22:56:09.054Z,98585.69
2023-03-06T22:58:37.844Z,98582.94
2023-03-06T23:01:12.119Z,98582.16
2023-03-06T23:03:41.873Z,98572.25
2023-03-06T23:06:12.289Z,98578.09
2023-03-06T23:08:40.329Z,98583.78
2023-03-06T23:11:09.972Z,98574.72
2023-03-06T23:13:56.820Z,98580.38
2023-03-06T23:16:44.941Z,98573.63
2023-03-06T23:19:32.012Z,98557.66
2023-03-06T23:22:18.361Z,98572.97
2023-03-06T23:25:06.006Z,98565.38
2023-03-06T23:27:36.006Z,98571.47
2023-03-06T23:30:04.670Z,98583.06
2023-03-06T23:32:34.518Z,98585.47
2023-03-06T23:35:02.484Z,98585.75
2023-03-06T23:37:30.386Z,98588.69
2023-03-06T23:39:58.456Z,98582.31
2023-03-06T23:42:26.432Z,98584.25
2023-03-06T23:44:54.477Z,98585.31
2023-03-06T23:47:22.533Z,98587.03
2023-03-06T23:49:51.759Z,98586.19
2023-03-06T23:52:19.646Z,98583.72
2023-03-06T23:54:49.780Z,98591.13
2023-03-06T23:57:17.679Z,98602.72
2023-03-06T23:59:45.644Z,98592.50
